Perth, Australia
Current Conditions -  °F | °C
As of 3:00 AM on Wednesday 28 Jan 2015 (Local Time) from YPPH Reporting Station
Clear Clear  
Wind Chill: 82°   Ceiling: Unl
Heat Index: 82°   Visibility: 6mi
Dew Point: 43°   Wind: 18mph
Humidity: 25%   Direction: 60°ENE
Pressure: 29.65"   Gusts: NA
Location:  31.96°S, 115.86°E
Report Text: YPPH 271900Z 06016KT CAVOK 28/06 Q1004
Loading
Personal Weather Stations






























Interactive Weather Map New forecast layout! Learn more

10-Day Weather Forecast

Advertisements
Track Severe Weather on mobile